zalando-lounge.be alexa rank chart, zalando-lounge.be alexa rank daily changes

zalando-lounge.be alexa rank chart, zalando-lounge.be alexa rank daily changes

zalando-lounge.be
Actual rank:
59 315

RANK HISTORY

Date Rank Diff
2018/05/21 59 315 -65 289
2018/05/20 124 604 -45 757
2018/05/19 170 361 +13 428
2018/05/18 156 933 +91 666
2018/05/17 65 267 +6 739
2018/05/16 58 528 +7 053
2018/05/15 51 475 -30 561
2018/05/14 82 036 +32 037
2018/05/13 49 999 -33 691
2018/05/12 83 690 -19 748
2018/05/11 103 438 -29 247
2018/05/10 132 685 +71 293
2018/05/09 61 392 +5 500
2018/05/08 55 892 -4 219
2018/05/07 60 111 -21 612
2018/05/06 81 723 -112 808
2018/05/05 194 531 +88 510
2018/05/04 106 021 +58 964
2018/05/03 47 057 -20 778
2018/05/02 67 835 +5 067
2018/05/01 62 768 +13 458
2018/04/30 49 310 -16 081
2018/04/29 65 391 -11 205
2018/04/28 76 596 +20 849
2018/04/27 55 747 -16 048
2018/04/26 71 795 -3 444
2018/04/25 75 239 -1 063
2018/04/24 76 302 +20 555
2018/04/23 55 747 -34 965
2018/04/22 90 712 +26 684
2018/04/21 64 028 -1 310
2018/04/20 65 338 -14 994
2018/04/19 80 332 -47 637
2018/04/18 127 969 +61 840
2018/04/17 66 129 -4 918
2018/04/16 71 047 -33 425
2018/04/15 104 472 +28 699
2018/04/14 75 773 +4 723
2018/04/13 71 050 -31 463
2018/04/12 102 513 -40 675
2018/04/11 143 188 +61 520
2018/04/10 81 668 -68 389
2018/04/09 150 057 +78 120
2018/04/08 71 937 +5 124
2018/04/07 66 813 -45 110
2018/04/06 111 923 +12 638
2018/04/05 99 285 +58 157
2018/04/04 41 128 -46 180
2018/04/03 87 308 +17 491
2018/04/02 69 817 +12 920
2018/04/01 56 897 -13 279
2018/03/31 70 176 -32 637
2018/03/30 102 813 +38 080
2018/03/29 64 733 -155 100
2018/03/28 219 833 +168 433
2018/03/27 51 400 -22 345
2018/03/26 73 745 -61 377
2018/03/25 135 122 +26 767
2018/03/24 108 355 -23 029
2018/03/23 131 384 +2 890
2018/03/22 128 494

WIDGET FOR YOUR SITE

DOMAINS WITH THE NEAREST RANK

Domain Rank
idbibank.com 59 310
pingtoprice.com 59 311
cadence.com 59 312
alarabydownloads.com 59 313
opodo.com 59 314
zalando-lounge.be 59 315
educative.io 59 316
uopolurs.xyz 59 317
stagecoachbus.com 59 318
dizibip.com 59 319
fbonpdhuhqpruudkid.bid 59 320

DOMAINS WITH THE NEAREST RANK BY TLD .be

Domain Rank
cinenews.be 56 758
seniorennet.be 56 778
clint.be 57 047
stepstone.be 58 105
wattedoen.be 58 632
zalando-lounge.be 59 315
ucll.be 59 572
vivastreet.be 59 751
sport.be 59 779
mobilevikings.be 60 707
lecho.be 60 787